الصفحة الرئيسية
صور الأقمار الصناعية توقعات الطقس لمدة 15 يوممناخالتوقعات البحرية إعصار برق مطارأسئلة وأجوبة النشرة الإخبارية حول
طقس : أوروبا أفريقيا أمريكا الشمالية أمريكا الجنوبية آسيا أستراليا-أوقيانوسيا آخرون
لغات جهة اتصال

مدينة همدان, إيران

دائرة عرض: 34-52-05N, خط طول: 048-33-08E, ارتفاع: 1757 m


METAR: OIHH 170858Z 03004KT 9999 FEW040 SCT200 19/03 Q1022
short-TAF: فقد
long-TAF: عفا عليها الزمن (56834 ساعات)

زمن: 14:05 (09:35 UTC)

مراقبة الطقس الحالي

تاريخ و وقت الإصدار 37 دقيقة قبل الساعة 08:58 UTC  
ريح 04 kt من الشمال/الشمال
درجة الحرارة 19°C
الرطوبة 34%
ضغط 1022 hPa
الرؤية 10 km أو أكثر
غيوم متفرقة على ارتفاع 4000 ft
غيوم متفرقة على ارتفاع 20000 ft

تغيير وحدة
المعلومات الواردة في هذا الموقع يخضع إخلاء
طقس : أوروبا أفريقيا أمريكا الشمالية أمريكا الجنوبية آسيا أستراليا-أوقيانوسيا آخرون
صور الأقمار الصناعية توقعات الطقس لمدة 15 يوممناخالتوقعات البحرية إعصار برق مطارأسئلة وأجوبة لغات جهة اتصال النشرة الإخبارية حول